Time;durP1;ratioP1;P1;durP2;ratioP2;P2;SDS_P1;SDS_P2;PMS_P1;PMS_P2;Temp;Humidity;BMP_temperature;BMP_pressure;BME280_temperature;BME280_humidity;BME280_pressure;Samples;Min_cycle;Max_cycle;Signal;HPM_P1;HPM_P2
2022/04/28 00:00:37;;;;;;;8.02;2.40;;;;;;;7.41;100.00;102774.28;5070336;28;20140;-82
2022/04/28 00:03:04;;;;;;;10.65;2.40;;;;;;;7.36;100.00;102788.16;5070841;28;20154;-82
2022/04/28 00:05:31;;;;;;;9.05;3.72;;;;;;;7.33;100.00;102785.50;5070957;28;20549;-83
2022/04/28 00:07:57;;;;;;;7.88;2.72;;;;;;;7.56;100.00;102788.31;5071005;28;20079;-82
2022/04/28 00:10:25;;;;;;;8.40;2.50;;;;;;;7.33;100.00;102782.91;5070555;28;20470;-82
2022/04/28 00:12:52;;;;;;;6.85;2.45;;;;;;;7.15;100.00;102739.31;5070734;28;20064;-82
2022/04/28 00:15:19;;;;;;;7.97;2.50;;;;;;;7.13;100.00;102769.72;5070940;28;20078;-82
2022/04/28 00:17:45;;;;;;;8.38;2.50;;;;;;;7.11;100.00;102725.41;5072027;28;20044;-82
2022/04/28 00:20:12;;;;;;;8.88;2.50;;;;;;;7.37;100.00;102785.56;5077475;28;20051;-82
2022/04/28 00:22:40;;;;;;;12.35;2.80;;;;;;;7.31;100.00;102797.66;5077042;28;20044;-82
2022/04/28 00:25:07;;;;;;;9.02;3.20;;;;;;;7.18;100.00;102784.50;5076821;28;20055;-81
2022/04/28 00:27:34;;;;;;;5.63;2.13;;;;;;;7.32;100.00;102773.34;5076707;28;20052;-82
2022/04/28 00:30:01;;;;;;;7.90;2.25;;;;;;;6.92;100.00;102771.22;5076186;28;20071;-82
2022/04/28 00:32:28;;;;;;;10.15;3.38;;;;;;;6.65;100.00;102772.69;5077942;28;20127;-82
2022/04/28 00:34:55;;;;;;;9.82;2.50;;;;;;;6.86;100.00;102784.19;5077876;28;20384;-82
2022/04/28 00:37:22;;;;;;;8.07;2.55;;;;;;;7.09;100.00;102757.53;5076889;28;20088;-83
2022/04/28 00:39:50;;;;;;;9.05;2.72;;;;;;;7.27;100.00;102788.94;5076669;28;20047;-82
2022/04/28 00:42:18;;;;;;;9.77;2.67;;;;;;;7.04;100.00;102779.16;5066610;28;20051;-82
2022/04/28 00:44:46;;;;;;;9.90;2.58;;;;;;;6.98;100.00;102750.47;5090771;28;20053;-82
2022/04/28 00:47:14;;;;;;;8.13;2.58;;;;;;;7.13;100.00;102774.91;5061154;28;20055;-82
2022/04/28 00:52:27;;;;;;;8.15;2.40;;;;;;;7.11;100.00;102772.28;5078739;28;20063;-82
2022/04/28 00:54:55;;;;;;;8.00;2.40;;;;;;;7.00;100.00;102759.16;5078176;28;20048;-82
2022/04/28 00:57:22;;;;;;;7.75;2.65;;;;;;;6.91;100.00;102779.91;5077258;28;20067;-82
2022/04/28 00:59:51;;;;;;;6.80;2.97;;;;;;;6.81;100.00;102749.44;5076627;28;20052;-82
2022/04/28 01:02:18;;;;;;;10.18;2.67;;;;;;;7.09;100.00;102776.63;5064896;28;20070;-82
2022/04/28 01:04:47;;;;;;;7.13;2.63;;;;;;;7.08;100.00;102776.59;5076660;28;20162;-82
2022/04/28 01:07:14;;;;;;;6.90;2.58;;;;;;;6.76;100.00;102722.47;5076600;28;20052;-82
2022/04/28 01:09:41;;;;;;;10.27;2.95;;;;;;;7.11;100.00;102784.44;5077653;28;20060;-82
2022/04/28 01:12:14;;;;;;;8.85;2.63;;;;;;;6.92;100.00;102772.97;5076769;28;20474;-82
2022/04/28 01:14:42;;;;;;;;;;;;;;;7.21;100.00;102794.97;5076327;28;20055;-82
2022/04/28 01:17:09;;;;;;;8.82;2.60;;;;;;;6.74;100.00;102791.88;5075472;28;19995;-82
2022/04/28 01:19:36;;;;;;;8.00;2.65;;;;;;;6.71;100.00;102771.00;5075777;28;20044;-82
2022/04/28 01:22:05;;;;;;;7.05;2.30;;;;;;;6.73;100.00;102771.88;5076405;28;20143;-82
2022/04/28 01:24:31;;;;;;;10.23;2.75;;;;;;;6.77;100.00;102771.09;5076948;28;20048;-82
2022/04/28 01:27:00;;;;;;;10.38;2.70;;;;;;;6.82;100.00;102790.25;5076925;28;20499;-82
2022/04/28 01:29:27;;;;;;;7.18;2.67;;;;;;;6.77;100.00;102773.69;5073748;28;20057;-82
2022/04/28 01:31:54;;;;;;;8.23;2.88;;;;;;;6.79;100.00;102779.78;5072950;28;20049;-82
2022/04/28 01:34:21;;;;;;;9.20;2.47;;;;;;;6.49;100.00;102739.53;5075042;28;20082;-82
2022/04/28 01:36:47;;;;;;;9.40;2.92;;;;;;;6.43;100.00;102752.50;5073547;28;20055;-82
2022/04/28 01:39:14;;;;;;;9.10;2.63;;;;;;;6.39;100.00;102754.19;5074926;28;20049;-82
2022/04/28 01:41:42;;;;;;;6.55;2.20;;;;;;;6.05;100.00;102711.25;5072805;28;20049;-82
2022/04/28 01:44:09;;;;;;;7.57;2.80;;;;;;;6.32;100.00;102754.97;5074885;28;20048;-83
2022/04/28 01:46:36;;;;;;;8.40;2.67;;;;;;;6.24;100.00;102769.59;5074226;28;20059;-82
2022/04/28 01:49:03;;;;;;;14.65;4.22;;;;;;;5.90;100.00;102748.31;5074096;28;20071;-81
2022/04/28 01:57:02;;;;;;;10.35;3.47;;;;;;;5.89;100.00;102754.34;5074579;28;20432;-82
2022/04/28 01:59:28;;;;;;;8.50;3.22;;;;;;;5.71;100.00;102739.34;5067596;28;20049;-82
2022/04/28 02:01:55;;;;;;;8.60;2.88;;;;;;;6.08;100.00;102781.53;5073411;28;20046;-82
2022/04/28 02:04:22;;;;;;;11.80;2.88;;;;;;;6.05;100.00;102782.34;5074314;28;20067;-82
2022/04/28 02:06:49;;;;;;;7.60;2.78;;;;;;;6.14;100.00;102797.19;5073993;28;20056;-82
2022/04/28 02:09:15;;;;;;;7.63;2.47;;;;;;;6.11;100.00;102793.69;5072025;28;20055;-82
2022/04/28 02:11:42;;;;;;;9.57;3.80;;;;;;;5.94;100.00;102796.03;5071704;28;20151;-82
2022/04/28 02:14:09;;;;;;;8.00;2.58;;;;;;;5.93;100.00;102800.31;5072077;28;20048;-82
2022/04/28 02:16:36;;;;;;;7.60;2.53;;;;;;;5.87;100.00;102789.84;5072801;28;20052;-82
2022/04/28 02:19:03;;;;;;;8.80;2.40;;;;;;;5.92;100.00;102785.59;5073889;28;20052;-82
2022/04/28 02:21:29;;;;;;;6.80;2.38;;;;;;;6.06;100.00;102793.63;5071910;28;20044;-82
2022/04/28 02:23:56;;;;;;;8.02;2.53;;;;;;;6.10;100.00;102778.94;5072785;28;20048;-82
2022/04/28 02:26:23;;;;;;;11.23;3.50;;;;;;;6.11;100.00;102794.56;5072424;28;20052;-82
2022/04/28 02:28:49;;;;;;;8.00;2.80;;;;;;;5.93;100.00;102768.25;5073629;28;20052;-82
2022/04/28 02:31:16;;;;;;;7.25;3.15;;;;;;;5.77;100.00;102780.16;5068146;28;20051;-82
2022/04/28 02:33:43;;;;;;;6.60;2.42;;;;;;;5.65;100.00;102765.28;5072461;28;20076;-82
2022/04/28 02:36:10;;;;;;;8.73;3.00;;;;;;;5.82;100.00;102784.56;5072425;28;20052;-82
2022/04/28 02:38:37;;;;;;;9.88;2.92;;;;;;;5.86;100.00;102780.28;5073485;28;20641;-82
2022/04/28 02:41:04;;;;;;;8.13;2.42;;;;;;;6.05;100.00;102773.66;5071462;28;20041;-82
2022/04/28 02:43:31;;;;;;;8.05;2.70;;;;;;;6.25;100.00;102779.13;5072231;28;20056;-83
2022/04/28 02:45:58;;;;;;;6.47;2.30;;;;;;;6.20;100.00;102762.63;5071353;28;20052;-82
2022/04/28 02:48:25;;;;;;;7.20;2.50;;;;;;;6.29;100.00;102772.25;5071672;28;20059;-82
2022/04/28 02:50:52;;;;;;;9.35;3.08;;;;;;;6.02;100.00;102760.63;5071236;28;20052;-82
2022/04/28 02:53:19;;;;;;;10.38;3.80;;;;;;;5.96;100.00;102777.00;5071977;28;20797;-82
2022/04/28 02:55:46;;;;;;;7.25;2.80;;;;;;;5.81;100.00;102723.06;5071824;28;20559;-82
2022/04/28 02:58:12;;;;;;;9.68;3.05;;;;;;;6.07;100.00;102752.03;5072612;28;20044;-82
2022/04/28 03:00:39;;;;;;;8.68;2.80;;;;;;;5.77;100.00;102723.88;5071489;28;20479;-82
2022/04/28 03:03:06;;;;;;;10.40;2.75;;;;;;;5.66;100.00;102728.00;5071614;28;20045;-82
2022/04/28 03:10:46;;;;;;;6.10;2.92;;;;;;;5.77;100.00;102755.06;5072882;28;20131;-83
2022/04/28 03:11:05;;;;;;;8.63;2.47;;;;;;;5.87;100.00;102758.66;5070272;28;20050;-82
2022/04/28 03:13:32;;;;;;;10.20;2.72;;;;;;;6.04;100.00;102772.81;5084624;28;20048;-83
2022/04/28 03:16:00;;;;;;;7.68;2.40;;;;;;;6.05;100.00;102771.06;5084944;28;20048;-82
2022/04/28 03:18:27;;;;;;;6.78;2.67;;;;;;;6.15;100.00;102743.47;5051743;28;20402;-82
2022/04/28 03:20:55;;;;;;;8.50;2.90;;;;;;;5.95;100.00;102723.25;5062029;28;20127;-82
2022/04/28 03:23:23;;;;;;;11.40;3.45;;;;;;;6.05;100.00;102739.84;5072700;28;20044;-82
2022/04/28 03:25:51;;;;;;;5.78;2.30;;;;;;;5.95;100.00;102764.84;5070906;28;20054;-82
2022/04/28 03:28:19;;;;;;;7.93;2.50;;;;;;;5.77;100.00;102777.56;5070981;28;20048;-83
2022/04/28 03:30:48;;;;;;;8.93;2.40;;;;;;;5.57;100.00;102740.88;5070345;28;20052;-81
2022/04/28 03:33:17;;;;;;;7.75;2.95;;;;;;;5.74;100.00;102773.19;5052068;28;20045;-82
2022/04/28 03:35:44;;;;;;;7.78;2.30;;;;;;;5.70;100.00;102764.47;5068047;28;20044;-82
2022/04/28 03:38:13;;;;;;;9.07;2.70;;;;;;;5.32;100.00;102712.78;5067511;28;20389;-82
2022/04/28 03:40:41;;;;;;;10.55;3.13;;;;;;;5.45;100.00;102752.84;5061637;28;20502;-82
2022/04/28 03:43:11;;;;;;;8.75;3.72;;;;;;;5.42;100.00;102768.38;5072225;28;20048;-82
2022/04/28 03:45:39;;;;;;;8.90;3.00;;;;;;;5.35;100.00;102742.25;5072233;28;20055;-83
2022/04/28 03:48:10;;;;;;;10.00;2.88;;;;;;;5.29;100.00;102775.09;5071758;28;20135;-83
2022/04/28 03:50:37;;;;;;;9.75;3.15;;;;;;;5.56;100.00;102773.78;5069158;28;20048;-82
2022/04/28 03:53:05;;;;;;;13.05;2.97;;;;;;;5.27;100.00;102734.34;5070012;28;20040;-82
2022/04/28 03:55:32;;;;;;;12.60;3.13;;;;;;;5.01;100.00;102693.25;5069727;28;20432;-82
2022/04/28 03:57:58;;;;;;;10.70;3.05;;;;;;;5.49;100.00;102771.94;5050954;28;20487;-82
2022/04/28 04:00:26;;;;;;;10.55;2.90;;;;;;;5.59;100.00;102772.97;5058663;28;20040;-82
2022/04/28 04:02:52;;;;;;;10.38;3.10;;;;;;;5.17;100.00;102735.03;5070349;28;20401;-82
2022/04/28 04:05:19;;;;;;;8.70;3.00;;;;;;;5.40;100.00;102769.19;5069997;28;20055;-82
2022/04/28 04:07:46;;;;;;;12.13;2.90;;;;;;;4.95;100.00;102694.00;5071599;28;20049;-82
2022/04/28 04:10:13;;;;;;;7.55;2.70;;;;;;;5.23;100.00;102768.91;5069627;28;20041;-82
2022/04/28 04:12:40;;;;;;;7.47;2.70;;;;;;;5.42;100.00;102762.28;5071859;28;20044;-82
2022/04/28 04:15:07;;;;;;;10.68;3.40;;;;;;;5.20;100.00;102738.56;5070145;28;20052;-82
2022/04/28 04:17:45;;;;;;;11.60;3.85;;;;;;;5.28;100.00;102767.28;5070573;28;20056;-82
2022/04/28 04:20:13;;;;;;;9.20;3.30;;;;;;;5.11;100.00;102735.81;5070337;28;20457;-82
2022/04/28 04:22:40;;;;;;;8.75;3.00;;;;;;;5.31;100.00;102741.31;5072084;28;20049;-82
2022/04/28 04:25:07;;;;;;;8.38;3.17;;;;;;;5.63;100.00;102769.53;5072077;28;20052;-82
2022/04/28 04:27:34;;;;;;;7.60;3.03;;;;;;;5.66;100.00;102756.59;5071651;28;20056;-82
2022/04/28 04:32:17;;;;;;;13.60;4.25;;;;;;;5.58;100.00;102748.69;5069842;28;20520;-82
2022/04/28 04:32:48;;;;;;;14.48;3.90;;;;;;;5.82;100.00;102768.97;5072090;28;20500;-82
2022/04/28 04:35:16;;;;;;;8.32;3.17;;;;;;;5.87;100.00;102769.91;5070238;28;20132;-82
2022/04/28 04:37:43;;;;;;;10.43;3.10;;;;;;;5.65;100.00;102762.69;5067820;28;20052;-82
2022/04/28 04:40:13;;;;;;;9.75;3.42;;;;;;;5.74;100.00;102768.00;5055365;28;20064;-82
2022/04/28 04:42:40;;;;;;;10.20;3.03;;;;;;;5.68;100.00;102773.09;5065573;28;20055;-82
2022/04/28 04:45:08;;;;;;;9.45;2.80;;;;;;;5.95;100.00;102775.25;5084177;28;20053;-83
2022/04/28 04:47:38;;;;;;;11.40;3.50;;;;;;;5.84;100.00;102769.91;5061489;28;20139;-82
2022/04/28 04:50:07;;;;;;;9.85;3.20;;;;;;;5.87;100.00;102764.72;5067005;28;20040;-82
2022/04/28 04:52:35;;;;;;;8.20;3.03;;;;;;;5.86;100.00;102739.59;5062581;28;20133;-82
2022/04/28 04:55:03;;;;;;;8.70;3.10;;;;;;;5.64;100.00;102708.94;5059292;28;20056;-82
2022/04/28 04:57:35;;;;;;;7.07;2.25;;;;;;;5.85;100.00;102731.75;5060262;28;20168;-81
2022/04/28 05:00:04;;;;;;;10.50;3.40;;;;;;;5.70;100.00;102717.69;5063058;28;20049;-82
2022/04/28 05:02:31;;;;;;;9.57;3.42;;;;;;;5.72;100.00;102733.31;5060968;28;20052;-82
2022/04/28 05:04:58;;;;;;;9.50;3.17;;;;;;;5.80;100.00;102700.50;5062046;28;20111;-82
2022/04/28 05:07:31;;;;;;;9.68;2.92;;;;;;;6.21;100.00;102775.63;5064907;28;20631;-82
2022/04/28 05:09:58;;;;;;;;;;;;;;;6.20;100.00;102780.81;5062988;28;20049;-82
2022/04/28 05:12:25;;;;;;;9.63;3.50;;;;;;;5.95;100.00;102733.66;5065030;28;19925;-82
2022/04/28 05:14:51;;;;;;;10.40;3.35;;;;;;;6.15;100.00;102749.53;5069833;28;20135;-82
2022/04/28 05:17:18;;;;;;;14.15;3.00;;;;;;;6.18;100.00;102773.00;5063936;28;20063;-82
2022/04/28 05:19:45;;;;;;;10.25;3.30;;;;;;;6.00;100.00;102755.41;5065776;28;20045;-82
2022/04/28 05:22:14;;;;;;;10.55;3.58;;;;;;;6.12;100.00;102751.22;5095869;28;20388;-82
2022/04/28 05:24:40;;;;;;;12.20;3.47;;;;;;;6.30;100.00;102780.06;5065501;28;20053;-82
2022/04/28 05:27:07;;;;;;;10.80;3.13;;;;;;;6.30;100.00;102787.00;5062447;28;20063;-82
2022/04/28 05:29:34;;;;;;;11.13;3.55;;;;;;;6.19;100.00;102772.13;5064072;28;20449;-83
2022/04/28 05:32:01;;;;;;;16.02;3.88;;;;;;;6.42;100.00;102772.41;5062641;28;20045;-82
2022/04/28 05:34:27;;;;;;;13.20;2.75;;;;;;;6.58;100.00;102786.47;5061678;28;20111;-82
2022/04/28 05:36:54;;;;;;;12.50;3.05;;;;;;;6.82;100.00;102792.84;5066870;28;20049;-83
2022/04/28 05:39:21;;;;;;;12.88;3.33;;;;;;;6.31;100.00;102742.81;5062231;28;20398;-83
2022/04/28 05:41:48;;;;;;;10.00;3.28;;;;;;;6.49;100.00;102769.91;5088248;28;20574;-82
2022/04/28 05:47:01;;;;;;;9.77;3.05;;;;;;;6.20;100.00;102734.88;5063809;28;20044;-81
2022/04/28 05:49:28;;;;;;;10.68;3.88;;;;;;;6.07;100.00;102788.47;5068041;28;20049;-82
2022/04/28 05:51:55;;;;;;;10.18;3.22;;;;;;;6.10;100.00;102785.00;5071846;28;20055;-82
2022/04/28 05:54:21;;;;;;;9.55;3.63;;;;;;;6.24;100.00;102777.41;5065654;28;20053;-82
2022/04/28 05:56:48;;;;;;;11.75;4.15;;;;;;;6.69;100.00;102810.03;5059640;28;20630;-83
2022/04/28 05:59:16;;;;;;;7.25;3.03;;;;;;;7.11;100.00;102816.56;5059526;28;20045;-82
2022/04/28 06:01:42;;;;;;;10.90;3.22;;;;;;;7.12;100.00;102768.84;5067727;28;20076;-83
2022/04/28 06:04:09;;;;;;;11.10;3.53;;;;;;;7.27;100.00;102794.16;5068466;28;20051;-81
2022/04/28 06:06:39;;;;;;;17.17;4.07;;;;;;;7.23;100.00;102795.84;5067672;28;20135;-81
2022/04/28 06:09:05;;;;;;;12.07;3.25;;;;;;;7.35;100.00;102781.22;5062374;28;20431;-81
2022/04/28 06:11:32;;;;;;;11.82;3.53;;;;;;;7.54;100.00;102784.81;5065920;28;20053;-81
2022/04/28 06:13:59;;;;;;;12.00;4.03;;;;;;;6.96;100.00;102774.78;5068347;28;20048;-81
2022/04/28 06:16:26;;;;;;;8.52;3.35;;;;;;;6.97;100.00;102790.38;5067573;28;20079;-83
2022/04/28 06:18:54;;;;;;;9.98;4.03;;;;;;;6.82;100.00;102788.50;5067416;28;20136;-83
2022/04/28 06:21:21;;;;;;;12.15;3.47;;;;;;;6.95;100.00;102799.91;5066657;28;20131;-82
2022/04/28 06:23:47;;;;;;;11.98;3.63;;;;;;;7.95;100.00;102784.22;5065601;28;20053;-82
2022/04/28 06:26:14;;;;;;;12.82;3.70;;;;;;;8.71;100.00;102772.41;5058045;28;20864;-82
2022/04/28 06:28:41;;;;;;;14.50;4.53;;;;;;;9.36;100.00;102772.53;5064876;28;20044;-83
2022/04/28 06:31:08;;;;;;;13.27;4.75;;;;;;;9.66;100.00;102801.25;5061486;28;20049;-83
2022/04/28 06:33:39;;;;;;;11.23;3.00;;;;;;;10.19;100.00;102769.75;5063769;28;20048;-83
2022/04/28 06:36:06;;;;;;;8.60;2.80;;;;;;;10.67;99.17;102749.50;5069939;28;20513;-82
2022/04/28 06:38:39;;;;;;;12.43;4.03;;;;;;;10.27;99.77;102744.44;5069585;28;20055;-83
2022/04/28 06:41:06;;;;;;;9.95;3.08;;;;;;;11.24;95.44;102785.78;5066748;28;20546;-83
2022/04/28 06:43:33;;;;;;;7.88;2.90;;;;;;;11.52;91.21;102772.47;5065312;28;20060;-83
2022/04/28 06:46:12;;;;;;;9.48;2.78;;;;;;;11.76;90.58;102772.22;5067918;28;20053;-85
2022/04/28 06:48:39;;;;;;;11.43;2.88;;;;;;;12.24;85.68;102797.13;5064037;28;20040;-83
2022/04/28 06:51:06;;;;;;;8.25;2.83;;;;;;;12.51;83.98;102773.13;5059177;28;20479;-84
2022/04/28 06:53:33;;;;;;;10.20;3.28;;;;;;;12.87;80.87;102776.16;5066507;28;20486;-84
2022/04/28 06:56:00;;;;;;;13.35;4.13;;;;;;;12.19;83.89;102785.81;5061772;28;20056;-84
2022/04/28 06:58:27;;;;;;;11.68;4.10;;;;;;;12.30;82.31;102795.28;5061029;28;20059;-84
2022/04/28 07:00:53;;;;;;;12.80;3.95;;;;;;;12.63;81.72;102790.50;5061272;28;20059;-84
2022/04/28 07:03:20;;;;;;;8.38;3.10;;;;;;;13.19;79.96;102793.22;5051465;28;20041;-83
2022/04/28 07:05:47;;;;;;;8.50;2.40;;;;;;;13.81;75.65;102793.06;5053721;28;20088;-84
2022/04/28 07:08:14;;;;;;;9.10;2.72;;;;;;;13.17;77.32;102771.28;5054694;28;21584;-83
2022/04/28 07:10:41;;;;;;;8.45;2.40;;;;;;;13.82;76.65;102778.97;5073134;28;20059;-83
2022/04/28 07:13:08;;;;;;;8.75;2.75;;;;;;;14.20;76.21;102789.66;5073801;28;20044;-84
2022/04/28 07:15:36;;;;;;;10.43;2.30;;;;;;;14.85;71.93;102809.44;5074318;28;20787;-84
2022/04/28 07:18:05;;;;;;;7.88;2.13;;;;;;;15.25;70.37;102804.09;5075140;28;20632;-84
2022/04/28 07:20:33;;;;;;;8.07;2.42;;;;;;;15.00;69.20;102773.00;5073066;28;20055;-83
2022/04/28 07:23:01;;;;;;;9.00;1.95;;;;;;;15.65;69.48;102797.81;5073731;28;20091;-82
2022/04/28 07:25:29;;;;;;;8.30;2.10;;;;;;;15.47;68.34;102795.63;5074075;28;20052;-82
2022/04/28 07:27:57;;;;;;;9.63;3.10;;;;;;;15.06;67.96;102781.69;5073319;28;20055;-83
2022/04/28 07:30:26;;;;;;;9.90;2.70;;;;;;;15.78;67.15;102789.59;5072420;28;20131;-82
2022/04/28 07:32:53;;;;;;;8.07;2.40;;;;;;;16.62;72.23;102818.03;5071844;28;20678;-83
2022/04/28 07:35:23;;;;;;;9.50;2.50;;;;;;;15.56;65.17;102777.78;5072211;28;20131;-83
2022/04/28 07:37:51;;;;;;;6.70;2.20;;;;;;;15.21;72.34;102814.75;5073394;28;20098;-83
2022/04/28 07:40:24;;;;;;;6.88;2.22;;;;;;;15.73;71.31;102765.91;5071373;28;20048;-83
2022/04/28 07:42:51;;;;;;;7.80;2.20;;;;;;;16.14;68.06;102778.00;5059920;28;20050;-83
2022/04/28 07:45:17;;;;;;;11.07;2.65;;;;;;;15.71;67.43;102787.06;5072755;28;20041;-83
2022/04/28 07:47:44;;;;;;;12.98;2.85;;;;;;;15.54;68.53;102795.41;5071127;28;20048;-83
2022/04/28 07:50:11;;;;;;;9.25;2.53;;;;;;;14.95;70.63;102779.31;5071993;28;20055;-83
2022/04/28 07:52:38;;;;;;;7.93;2.15;;;;;;;15.41;70.01;102801.94;5064111;28;20045;-83
2022/04/28 07:55:06;;;;;;;14.55;3.38;;;;;;;14.45;71.43;102813.78;5071530;28;20044;-83
2022/04/28 07:57:33;;;;;;;10.27;3.30;;;;;;;14.22;72.86;102777.34;5071619;28;20048;-84
2022/04/28 08:00:00;;;;;;;8.55;2.33;;;;;;;15.38;70.18;102821.34;5070542;28;20135;-83
2022/04/28 08:02:29;;;;;;;7.50;2.13;;;;;;;15.98;67.96;102775.84;5059767;28;20474;-84
2022/04/28 08:04:56;;;;;;;10.32;2.65;;;;;;;15.65;67.78;102762.59;5072386;28;20054;-83
2022/04/28 08:07:22;;;;;;;14.30;3.50;;;;;;;14.99;70.70;102808.19;5071916;28;20139;-83
2022/04/28 08:09:50;;;;;;;14.60;3.13;;;;;;;14.78;71.76;102808.69;5072097;28;20059;-84
2022/04/28 08:12:16;;;;;;;14.40;3.22;;;;;;;14.40;73.23;102810.38;5072258;28;20048;-83
2022/04/28 08:15:03;;;;;;;16.77;4.30;;;;;;;15.57;68.97;102768.09;5072375;28;20064;-83
2022/04/28 08:17:30;;;;;;;10.23;2.55;;;;;;;16.47;66.70;102798.22;5072724;28;20706;-83
2022/04/28 08:19:57;;;;;;;10.00;2.70;;;;;;;15.67;64.93;102789.81;5070335;28;20050;-83
2022/04/28 08:22:24;;;;;;;10.13;3.10;;;;;;;15.71;65.51;102788.84;5070575;28;20048;-83
2022/04/28 08:24:51;;;;;;;11.82;3.22;;;;;;;14.79;69.06;102789.34;5072391;28;20049;-83
2022/04/28 08:27:18;;;;;;;10.05;2.80;;;;;;;15.68;68.35;102810.91;5072403;28;20401;-83
2022/04/28 08:29:45;;;;;;;7.20;1.92;;;;;;;16.03;66.98;102793.28;5070661;28;20040;-83
2022/04/28 08:32:12;;;;;;;9.50;2.60;;;;;;;15.64;65.17;102782.00;5072306;28;20055;-83
2022/04/28 08:34:39;;;;;;;9.75;3.05;;;;;;;15.93;65.31;102803.22;5066607;28;20396;-83
2022/04/28 08:37:06;;;;;;;10.43;3.75;;;;;;;15.94;63.86;102834.03;5052254;28;20049;-83
2022/04/28 08:39:32;;;;;;;13.90;3.50;;;;;;;15.54;65.16;102807.75;5064058;28;20053;-83
2022/04/28 08:42:00;;;;;;;7.65;2.33;;;;;;;17.08;62.55;102795.47;5074488;28;20127;-83
2022/04/28 08:44:28;;;;;;;12.57;3.75;;;;;;;16.24;63.88;102835.91;5075809;28;20097;-86
2022/04/28 08:46:55;;;;;;;12.60;3.38;;;;;;;16.73;61.68;102800.06;5069027;28;20070;-85
2022/04/28 08:49:24;;;;;;;7.63;2.30;;;;;;;17.50;61.59;102826.75;5074138;28;20045;-85
2022/04/28 08:51:56;;;;;;;12.75;4.20;;;;;;;16.69;60.21;102827.53;5073561;28;20890;-85
2022/04/28 08:54:26;;;;;;;11.50;2.95;;;;;;;18.29;58.13;102821.34;5072882;28;20056;-85
2022/04/28 08:56:54;;;;;;;11.48;2.78;;;;;;;16.86;59.29;102772.34;5076253;28;20078;-85
2022/04/28 08:59:22;;;;;;;11.93;2.63;;;;;;;17.70;59.55;102774.88;5076264;28;20143;-85
2022/04/28 09:01:52;;;;;;;9.88;3.00;;;;;;;17.94;57.78;102781.97;5076032;28;20432;-85
2022/04/28 09:04:22;;;;;;;9.15;3.03;;;;;;;17.64;57.61;102815.69;5076060;28;20501;-85
2022/04/28 09:06:54;;;;;;;10.52;3.22;;;;;;;16.70;61.22;102795.75;5076366;28;20132;-85
2022/04/28 09:09:21;;;;;;;9.85;2.50;;;;;;;17.09;59.58;102797.22;5076137;28;20053;-84
2022/04/28 09:11:49;;;;;;;7.97;2.50;;;;;;;16.81;59.43;102784.81;5074330;28;20044;-85
2022/04/28 09:14:22;;;;;;;10.65;3.65;;;;;;;16.57;59.42;102765.28;5075735;28;20055;-85
2022/04/28 09:16:50;;;;;;;;;;;;;;;17.58;58.59;102811.47;5075004;28;20059;-85
2022/04/28 09:19:27;;;;;;;9.80;2.63;;;;;;;17.98;55.97;102809.22;5074247;28;19920;-85
2022/04/28 09:21:57;;;;;;;13.98;3.15;;;;;;;17.40;57.44;102778.50;5074018;28;20044;-85
2022/04/28 09:24:25;;;;;;;8.57;2.85;;;;;;;17.62;57.13;102793.69;5075439;28;20053;-85
2022/04/28 09:26:54;;;;;;;8.68;3.08;;;;;;;17.30;58.01;102777.13;5074254;28;20062;-86
2022/04/28 09:29:24;;;;;;;7.60;2.28;;;;;;;17.90;57.03;102813.94;5073653;28;20054;-85
2022/04/28 09:31:52;;;;;;;11.98;3.88;;;;;;;17.06;58.58;102792.88;5073273;28;20056;-85
2022/04/28 09:34:49;;;;;;;10.57;2.65;;;;;;;17.96;58.14;102809.28;5055406;28;20048;-85
2022/04/28 09:37:19;;;;;;;8.38;2.72;;;;;;;17.71;57.94;102780.13;5054293;28;20063;-85
2022/04/28 09:42:41;;;;;;;11.65;3.28;;;;;;;17.41;59.76;102774.97;5074891;28;20136;-85
2022/04/28 09:45:10;;;;;;;9.43;2.50;;;;;;;17.56;59.45;102812.44;5073749;28;20056;-84
2022/04/28 09:47:37;;;;;;;10.82;2.67;;;;;;;17.77;59.61;102786.97;5072933;28;20056;-84
2022/04/28 09:50:15;;;;;;;8.80;2.92;;;;;;;17.67;59.93;102801.47;5072778;28;20045;-84
2022/04/28 09:52:44;;;;;;;18.65;3.97;;;;;;;17.51;60.01;102827.59;5074510;28;20060;-84
2022/04/28 09:55:11;;;;;;;14.35;3.05;;;;;;;17.45;60.14;102786.31;5073220;28;20048;-83
2022/04/28 09:57:38;;;;;;;13.50;3.22;;;;;;;17.07;60.76;102780.53;5073311;28;20132;-83
2022/04/28 10:00:05;;;;;;;12.23;2.63;;;;;;;16.91;60.87;102763.38;5073707;28;20048;-83
2022/04/28 10:02:33;;;;;;;12.60;4.07;;;;;;;16.02;63.66;102788.03;5074483;28;20058;-83
2022/04/28 10:05:05;;;;;;;14.07;3.75;;;;;;;16.52;64.17;102831.53;5074092;28;20060;-83
2022/04/28 10:07:36;;;;;;;11.35;3.38;;;;;;;16.59;63.81;102787.28;5070354;28;20052;-84
2022/04/28 10:10:04;;;;;;;11.65;3.80;;;;;;;15.79;67.45;102786.03;5063506;28;20040;-84
2022/04/28 10:12:30;;;;;;;10.70;3.38;;;;;;;16.59;65.62;102797.84;5075054;28;20132;-84
2022/04/28 10:14:59;;;;;;;16.75;3.17;;;;;;;16.59;63.70;102766.13;5074467;28;20048;-85
2022/04/28 10:17:39;;;;;;;12.55;3.40;;;;;;;16.99;64.61;102824.88;5074382;28;20508;-85
2022/04/28 10:20:15;;;;;;;17.90;3.95;;;;;;;15.87;65.33;102769.06;5073844;28;20059;-85
2022/04/28 10:23:05;;;;;;;12.25;3.22;;;;;;;17.00;63.60;102816.91;5074423;28;20055;-85
2022/04/28 10:34:16;;;;;;;16.73;3.75;;;;;;;16.66;64.66;102746.50;5053937;28;20045;-85
2022/04/28 10:36:53;;;;;;;13.20;4.15;;;;;;;15.47;67.20;102762.16;5053501;28;20041;-84
2022/04/28 10:39:39;;;;;;;13.05;3.67;;;;;;;16.80;66.20;102811.31;5054156;28;20509;-85
2022/04/28 10:42:33;;;;;;;12.45;3.25;;;;;;;16.22;65.93;102808.63;5062946;28;20367;-85
2022/04/28 10:45:04;;;;;;;15.47;3.47;;;;;;;15.81;66.10;102779.81;5055334;28;20049;-85
2022/04/28 10:47:35;;;;;;;12.50;3.65;;;;;;;16.43;65.03;102812.41;5085403;28;20053;-85
2022/04/28 10:50:26;;;;;;;9.93;3.10;;;;;;;16.50;65.69;102816.63;5058363;28;20094;-85
2022/04/28 10:52:59;;;;;;;16.27;4.00;;;;;;;15.52;64.73;102791.09;5073999;28;20453;-85
2022/04/28 10:55:33;;;;;;;15.07;4.65;;;;;;;16.18;65.71;102791.97;5072988;28;20150;-85
2022/04/28 10:58:20;;;;;;;14.60;4.43;;;;;;;15.92;65.36;102814.72;5052774;28;20059;-85
2022/04/28 11:00:58;;;;;;;16.42;4.35;;;;;;;16.17;65.75;102824.63;5063245;28;20049;-85
2022/04/28 11:03:51;;;;;;;13.20;4.47;;;;;;;16.12;66.89;102832.66;5085605;28;20051;-87
2022/04/28 11:06:21;;;;;;;22.25;5.10;;;;;;;16.16;66.38;102780.59;5061590;28;20076;-87
2022/04/28 11:08:51;;;;;;;12.63;3.65;;;;;;;16.88;64.55;102819.94;5072775;28;20379;-87
2022/04/28 11:11:17;;;;;;;15.43;4.20;;;;;;;16.36;64.59;102769.47;5071270;28;20051;-87
2022/04/28 11:13:51;;;;;;;12.45;4.20;;;;;;;16.10;65.66;102809.84;5071033;28;20509;-87
2022/04/28 11:16:18;;;;;;;13.63;4.40;;;;;;;16.32;63.08;102796.88;5066514;28;20474;-85
2022/04/28 11:18:45;;;;;;;19.00;4.60;;;;;;;16.10;64.31;102794.00;5073206;28;20502;-85
2022/04/28 11:21:13;;;;;;;15.23;3.72;;;;;;;16.88;64.56;102770.50;5071895;28;20056;-86
2022/04/28 11:23:43;;;;;;;13.57;3.60;;;;;;;16.22;64.25;102792.75;5072626;28;20049;-85
2022/04/28 11:26:10;;;;;;;13.27;4.25;;;;;;;15.83;64.38;102787.69;5072404;28;20052;-85
2022/04/28 11:28:40;;;;;;;12.88;4.22;;;;;;;16.18;64.82;102785.84;5073525;28;20055;-85
2022/04/28 11:31:13;;;;;;;13.07;4.00;;;;;;;16.33;66.22;102780.13;5072884;28;20094;-85
2022/04/28 11:33:42;;;;;;;12.48;3.40;;;;;;;16.84;63.02;102775.97;5073450;28;20406;-85
2022/04/28 11:36:19;;;;;;;12.52;3.35;;;;;;;17.27;63.58;102822.22;5073150;28;20048;-85
2022/04/28 11:38:51;;;;;;;11.52;2.92;;;;;;;17.29;61.32;102824.81;5073478;28;20063;-83
2022/04/28 11:41:29;;;;;;;14.10;3.60;;;;;;;16.93;62.15;102828.59;5073989;28;20445;-84
2022/04/28 11:44:08;;;;;;;17.10;3.92;;;;;;;16.57;62.27;102804.94;5074047;28;20525;-84
2022/04/28 11:46:50;;;;;;;16.70;3.83;;;;;;;16.69;62.44;102830.16;5073570;28;20063;-85
2022/04/28 11:49:18;;;;;;;13.07;3.72;;;;;;;17.15;61.53;102781.13;5073416;28;20067;-85
2022/04/28 11:51:46;;;;;;;13.50;4.07;;;;;;;17.61;61.68;102787.50;5072403;28;20058;-85
2022/04/28 11:54:23;;;;;;;9.68;3.25;;;;;;;17.04;61.96;102818.53;5072983;28;20048;-84